Disclaimer

Please do not use the information listed here in-flight or in-navigation, as they are not provided to us by the airports but are provided by volunteers, so they might be outdated.

Search


Regions


Airport information page

Radio informations:
Tower (TWR) - 125.9 MHz
Approach (APP) - 125.9 MHz
A/G VOICE RDO - 6586 MHz

Airport informations:
Latitude: 06° 21' 26.02" N
Longitude: 002° 23' 03.67" E
Elevation: 19 feet - 6 meters
Operating hours: N/A
Operating agency: Military-civil joint use airport
Timezone: UTC+1
Fuel: Jet A1, without icing nhibitor.

100/130 octane gasoline, leaded, MIL-L-5572F (GREEN)

Runway information:
06/24 - 7874 x 148 feet< - >2400 x 45 meters

Recent METARs:
DBBB 131400Z 22009KT 180V250 9999 SCT013 32/26 Q1007 NOSIG
DBBB 131500Z 22010KT 9999 FEW013 31/26 Q1006 NOSIG
DBBB 131500Z 22010KT 9999 FEW013 31/26 Q1006 NOSIG

Airport on the map: